Terminal Aerodrome Forecast
Issued by NWS

Current Version | Previous Version | Graphics & Text | Print | Product List | Glossary On
Versions: 1 2 3 4 5 6 7 8 9 10 11 12 13 14 15 16 17 18 19 20 21
000
FTUS41 KPBZ 272200 AAC
TAFHLG
TAF AMD
KHLG 272210Z 2722/2818 22009KT P6SM VCSH FEW030 BKN060 OVC080
     FM280600 27010KT 5SM -SHRA BKN020
     FM280900 28010KT 5SM BR OVC007
     FM281400 30008KT P6SM BKN025=

USA.gov is the U.S. government's official web portal to all federal, state and local government web resources and services.